createdAt,value
2022-10-19T00:00:47.008Z,12.18
2022-10-19T00:00:52.162Z,12.17
2022-10-19T00:01:52.173Z,12.18
2022-10-19T00:02:52.148Z,12.22
2022-10-19T00:03:52.107Z,12.18
2022-10-19T00:04:52.079Z,12.21
2022-10-19T00:05:52.052Z,12.18
2022-10-19T00:06:52.059Z,12.18
2022-10-19T00:07:52.025Z,12.17
2022-10-19T00:08:52.073Z,12.14
2022-10-19T00:09:52.033Z,12.14
2022-10-19T00:10:52.007Z,12.14
2022-10-19T00:11:51.975Z,12.13
2022-10-19T00:12:51.982Z,12.13
2022-10-19T00:13:51.953Z,12.11
2022-10-19T00:14:51.983Z,12.10
2022-10-19T00:15:51.920Z,12.11
2022-10-19T00:16:51.923Z,12.11
2022-10-19T00:17:51.891Z,12.11
2022-10-19T00:18:51.929Z,12.11
2022-10-19T00:19:51.863Z,12.08
2022-10-19T00:20:51.905Z,12.08
2022-10-19T00:21:51.863Z,12.05
2022-10-19T00:22:51.840Z,12.05
2022-10-19T00:23:51.819Z,12.03
2022-10-19T00:24:51.828Z,11.99
2022-10-19T00:25:51.776Z,11.95
2022-10-19T00:26:51.833Z,11.91
2022-10-19T00:27:51.788Z,11.88
2022-10-19T00:28:51.799Z,11.87
2022-10-19T00:29:51.729Z,11.85
2022-10-19T00:30:51.757Z,11.82
2022-10-19T00:31:51.698Z,11.80
2022-10-19T00:32:51.747Z,11.80
2022-10-19T00:33:51.687Z,11.79
2022-10-19T00:34:51.684Z,11.77
2022-10-19T00:35:51.659Z,11.76
2022-10-19T00:36:51.675Z,11.76
2022-10-19T00:37:51.620Z,11.76
2022-10-19T00:38:51.666Z,11.74
2022-10-19T00:40:51.606Z,11.73
2022-10-19T00:41:51.567Z,11.71
2022-10-19T00:42:51.586Z,11.71
2022-10-19T00:43:51.554Z,11.71
2022-10-19T00:44:51.586Z,11.74
2022-10-19T00:45:51.511Z,11.74
2022-10-19T00:46:51.525Z,11.74
2022-10-19T00:47:51.502Z,11.74
2022-10-19T00:48:51.489Z,11.76
2022-10-19T00:49:51.722Z,11.76
2022-10-19T00:50:51.510Z,11.77
2022-10-19T00:51:51.443Z,11.77
2022-10-19T00:52:51.437Z,11.82
2022-10-19T00:53:51.417Z,11.85
2022-10-19T00:54:51.413Z,11.84
2022-10-19T00:55:51.407Z,11.82
2022-10-19T00:56:51.429Z,11.82
2022-10-19T00:58:51.405Z,11.79
2022-10-19T00:59:51.330Z,11.79
2022-10-19T01:00:51.343Z,11.79
2022-10-19T01:01:51.312Z,11.80
2022-10-19T01:02:51.363Z,11.82
2022-10-19T01:03:51.288Z,11.84
2022-10-19T01:04:51.283Z,11.85
2022-10-19T01:05:51.256Z,11.87
2022-10-19T01:07:51.242Z,11.85
2022-10-19T01:08:51.248Z,11.82
2022-10-19T01:09:51.222Z,11.82
2022-10-19T01:10:51.183Z,11.77
2022-10-19T01:11:51.188Z,11.74
2022-10-19T01:12:51.159Z,11.73
2022-10-19T01:13:51.160Z,11.70
2022-10-19T01:14:51.168Z,11.69
2022-10-19T01:15:51.133Z,11.70
2022-10-19T01:16:51.101Z,11.66
2022-10-19T01:17:51.132Z,11.67
2022-10-19T01:18:51.080Z,11.69
2022-10-19T01:19:51.090Z,11.67
2022-10-19T01:20:51.130Z,11.67
2022-10-19T01:21:51.055Z,11.66
2022-10-19T01:22:51.051Z,11.64
2022-10-19T01:23:51.113Z,11.62
2022-10-19T01:24:51.058Z,11.61
2022-10-19T01:25:50.988Z,11.58
2022-10-19T01:26:51.072Z,11.58
2022-10-19T01:27:50.970Z,11.55
2022-10-19T01:28:51.031Z,11.55
2022-10-19T01:29:50.957Z,11.52
2022-10-19T01:30:50.926Z,11.52
2022-10-19T01:31:50.917Z,11.51
2022-10-19T01:32:50.944Z,11.54
2022-10-19T01:33:50.972Z,11.52
2022-10-19T01:34:50.864Z,11.52
2022-10-19T01:35:50.881Z,11.54
2022-10-19T01:36:50.840Z,11.56
2022-10-19T01:37:50.845Z,11.58
2022-10-19T01:38:50.858Z,11.61
2022-10-19T01:39:50.814Z,11.61
2022-10-19T01:40:50.800Z,11.58
2022-10-19T01:41:50.814Z,11.56
2022-10-19T01:42:50.811Z,11.56
2022-10-19T01:43:50.754Z,11.56
2022-10-19T01:44:50.802Z,11.56
2022-10-19T01:45:50.726Z,11.56
2022-10-19T01:46:50.718Z,11.55
2022-10-19T01:47:50.726Z,11.55
2022-10-19T01:48:50.682Z,11.52
2022-10-19T01:49:50.687Z,11.52
2022-10-19T01:50:50.983Z,11.51
2022-10-19T01:51:50.683Z,11.54
2022-10-19T01:52:50.621Z,11.55
2022-10-19T01:53:50.635Z,11.55
2022-10-19T01:54:50.605Z,11.55
2022-10-19T01:55:50.597Z,11.58
2022-10-19T01:56:50.615Z,11.58
2022-10-19T01:57:50.566Z,11.56
2022-10-19T01:58:50.535Z,11.58
2022-10-19T01:59:50.556Z,11.59
2022-10-19T02:00:50.689Z,11.64
2022-10-19T02:01:50.514Z,11.64
2022-10-19T02:02:50.539Z,11.64
2022-10-19T02:03:50.540Z,11.64
2022-10-19T02:04:50.463Z,11.64
2022-10-19T02:05:50.469Z,11.69
2022-10-19T02:06:50.455Z,11.69
2022-10-19T02:07:50.481Z,11.71
2022-10-19T02:08:50.481Z,11.70
2022-10-19T02:09:50.420Z,11.71
2022-10-19T02:10:50.393Z,11.71
2022-10-19T02:11:51.344Z,11.69
2022-10-19T02:12:50.366Z,11.71
2022-10-19T02:13:50.361Z,11.69
2022-10-19T02:14:50.384Z,11.70
2022-10-19T02:15:50.329Z,11.69
2022-10-19T02:16:50.301Z,11.67
2022-10-19T02:17:50.299Z,11.66
2022-10-19T02:18:50.307Z,11.62
2022-10-19T02:19:50.275Z,11.66
2022-10-19T02:20:50.291Z,11.66
2022-10-19T02:21:50.259Z,11.69
2022-10-19T02:22:50.221Z,11.69
2022-10-19T02:23:51.933Z,11.67
2022-10-19T02:24:50.233Z,11.67
2022-10-19T02:25:50.196Z,11.67
2022-10-19T02:26:50.283Z,11.66
2022-10-19T02:27:50.188Z,11.64
2022-10-19T02:28:50.227Z,11.61
2022-10-19T02:29:50.191Z,11.61
2022-10-19T02:30:50.166Z,11.61
2022-10-19T02:31:50.121Z,11.62
2022-10-19T02:32:50.132Z,11.59
2022-10-19T02:33:50.108Z,11.61
2022-10-19T02:34:50.064Z,11.61
2022-10-19T02:35:50.075Z,11.61
2022-10-19T02:36:50.068Z,11.61
2022-10-19T02:37:50.043Z,11.61
2022-10-19T02:38:50.059Z,11.58
2022-10-19T02:39:50.101Z,11.58
2022-10-19T02:40:49.983Z,11.56
2022-10-19T02:41:49.981Z,11.55
2022-10-19T02:42:49.966Z,11.54
2022-10-19T02:43:49.956Z,11.54
2022-10-19T02:44:49.973Z,11.54
2022-10-19T02:45:49.948Z,11.52
2022-10-19T02:46:49.897Z,11.54
2022-10-19T02:47:49.899Z,11.55
2022-10-19T02:48:49.887Z,11.54
2022-10-19T02:49:49.892Z,11.54
2022-10-19T02:50:49.889Z,11.52
2022-10-19T02:51:49.869Z,11.52
2022-10-19T02:52:49.826Z,11.52
2022-10-19T02:53:49.828Z,11.54
2022-10-19T02:54:49.813Z,11.54
2022-10-19T02:55:49.797Z,11.55
2022-10-19T02:56:49.819Z,11.54
2022-10-19T02:57:49.798Z,11.59
2022-10-19T02:58:49.734Z,11.59
2022-10-19T02:59:49.761Z,11.62
2022-10-19T03:00:49.870Z,11.66
2022-10-19T03:01:49.721Z,11.67
2022-10-19T03:02:49.725Z,11.66
2022-10-19T03:03:49.727Z,11.69
2022-10-19T03:04:49.668Z,11.71
2022-10-19T03:05:49.692Z,11.74
2022-10-19T03:06:49.713Z,11.73
2022-10-19T03:07:49.641Z,11.77
2022-10-19T03:08:49.695Z,11.80
2022-10-19T03:09:49.613Z,11.82
2022-10-19T03:10:49.580Z,11.84
2022-10-19T03:11:49.582Z,11.84
2022-10-19T03:12:49.575Z,11.85
2022-10-19T03:13:49.562Z,11.88
2022-10-19T03:14:49.577Z,11.89
2022-10-19T03:15:49.555Z,11.91
2022-10-19T03:16:49.517Z,11.95
2022-10-19T03:17:49.519Z,11.95
2022-10-19T03:18:49.481Z,11.95
2022-10-19T03:19:49.485Z,11.96
2022-10-19T03:20:49.488Z,11.97
2022-10-19T03:21:49.470Z,11.97
2022-10-19T03:22:49.491Z,11.97
2022-10-19T03:23:49.425Z,12.00
2022-10-19T03:24:49.402Z,12.03
2022-10-19T03:25:49.405Z,12.05
2022-10-19T03:26:49.406Z,12.04
2022-10-19T03:27:49.386Z,12.04
2022-10-19T03:28:49.428Z,12.05
2022-10-19T03:29:49.348Z,12.07
2022-10-19T03:30:49.342Z,12.08
2022-10-19T03:31:49.311Z,12.11
2022-10-19T03:32:49.332Z,12.13
2022-10-19T03:33:49.303Z,12.13
2022-10-19T03:34:49.259Z,12.14
2022-10-19T03:35:49.258Z,12.14
2022-10-19T03:36:49.236Z,12.13
2022-10-19T03:37:49.246Z,12.17
2022-10-19T03:38:49.250Z,12.17
2022-10-19T03:39:49.224Z,12.21
2022-10-19T03:40:49.206Z,12.18
2022-10-19T03:41:49.191Z,12.22
2022-10-19T03:42:49.164Z,12.21
2022-10-19T03:43:49.221Z,12.21
2022-10-19T03:44:49.162Z,12.22
2022-10-19T03:45:49.127Z,12.23
2022-10-19T03:46:49.095Z,12.23
2022-10-19T03:47:49.114Z,12.23
2022-10-19T03:48:49.084Z,12.23
2022-10-19T03:49:49.095Z,12.26
2022-10-19T03:50:49.133Z,12.25
2022-10-19T03:51:49.042Z,12.26
2022-10-19T03:52:49.073Z,12.28
2022-10-19T03:53:49.031Z,12.28
2022-10-19T03:54:48.991Z,12.30
2022-10-19T03:55:48.988Z,12.30
2022-10-19T03:56:49.044Z,12.32
2022-10-19T03:57:48.964Z,12.30
2022-10-19T03:58:48.954Z,12.30
2022-10-19T03:59:48.979Z,12.33
2022-10-19T04:00:48.956Z,12.33
2022-10-19T04:01:48.915Z,12.35
2022-10-19T04:02:48.940Z,12.33
2022-10-19T04:03:48.884Z,12.33
2022-10-19T04:04:48.905Z,12.36
2022-10-19T04:05:48.865Z,12.35
2022-10-19T04:06:48.839Z,12.36
2022-10-19T04:07:48.839Z,12.36
2022-10-19T04:08:48.874Z,12.35
2022-10-19T04:09:48.809Z,12.35
2022-10-19T04:10:48.876Z,12.35
2022-10-19T04:11:48.804Z,12.35
2022-10-19T04:12:53.661Z,12.35
2022-10-19T04:13:48.760Z,12.35
2022-10-19T04:14:57.690Z,12.33
2022-10-19T04:15:48.757Z,12.35
2022-10-19T04:16:48.709Z,12.36
2022-10-19T04:17:48.776Z,12.38
2022-10-19T04:18:48.697Z,12.40
2022-10-19T04:19:48.677Z,12.38
2022-10-19T04:20:48.698Z,12.36
2022-10-19T04:21:48.651Z,12.38
2022-10-19T04:22:48.615Z,12.38
2022-10-19T04:23:48.664Z,12.40
2022-10-19T04:24:48.596Z,12.40
2022-10-19T04:25:48.599Z,12.40
2022-10-19T04:26:48.662Z,12.38
2022-10-19T04:27:48.591Z,12.38
2022-10-19T04:28:48.642Z,12.41
2022-10-19T04:29:48.587Z,12.40
2022-10-19T04:30:48.565Z,12.43
2022-10-19T04:31:48.517Z,12.41
2022-10-19T04:32:48.580Z,12.43
2022-10-19T04:33:48.487Z,12.43
2022-10-19T04:34:48.483Z,12.43
2022-10-19T04:35:48.499Z,12.43
2022-10-19T04:36:48.522Z,12.43
2022-10-19T04:37:48.451Z,12.44
2022-10-19T04:38:48.467Z,12.43
2022-10-19T04:39:48.457Z,12.41
2022-10-19T04:40:48.441Z,12.41
2022-10-19T04:41:48.417Z,12.43
2022-10-19T04:42:48.439Z,12.40
2022-10-19T04:43:48.382Z,12.41
2022-10-19T04:44:48.384Z,12.41
2022-10-19T04:45:48.333Z,12.41
2022-10-19T04:46:48.315Z,12.41
2022-10-19T04:47:48.318Z,12.38
2022-10-19T04:48:48.307Z,12.38
2022-10-19T04:49:48.296Z,12.38
2022-10-19T04:50:48.352Z,12.36
2022-10-19T04:51:48.271Z,12.36
2022-10-19T04:52:48.274Z,12.35
2022-10-19T04:53:48.253Z,12.35
2022-10-19T04:54:48.186Z,12.33
2022-10-19T04:55:48.197Z,12.30
2022-10-19T04:56:48.271Z,12.30
2022-10-19T04:57:48.188Z,12.32
2022-10-19T04:58:48.161Z,12.30
2022-10-19T04:59:48.187Z,12.30
2022-10-19T05:00:48.197Z,12.29
2022-10-19T05:01:48.116Z,12.30
2022-10-19T05:02:48.135Z,12.29
2022-10-19T05:03:48.159Z,12.29
2022-10-19T05:04:48.079Z,12.29
2022-10-19T05:05:48.147Z,12.30
2022-10-19T05:06:48.094Z,12.29
2022-10-19T05:07:48.039Z,12.28
2022-10-19T05:08:48.105Z,12.26
2022-10-19T05:09:48.003Z,12.26
2022-10-19T05:10:47.978Z,12.26
2022-10-19T05:11:47.999Z,12.25
2022-10-19T05:12:47.973Z,12.26
2022-10-19T05:13:47.970Z,12.28
2022-10-19T05:14:47.963Z,12.26
2022-10-19T05:15:47.923Z,12.25
2022-10-19T05:16:47.927Z,12.25
2022-10-19T05:17:47.876Z,12.26
2022-10-19T05:18:47.922Z,12.28
2022-10-19T05:19:47.896Z,12.26
2022-10-19T05:20:47.919Z,12.26
2022-10-19T05:21:47.878Z,12.26
2022-10-19T05:22:47.836Z,12.28
2022-10-19T05:23:47.812Z,12.26
2022-10-19T05:24:47.809Z,12.26
2022-10-19T05:25:47.823Z,12.28
2022-10-19T05:26:47.792Z,12.28
2022-10-19T05:27:47.806Z,12.29
2022-10-19T05:28:47.829Z,12.26
2022-10-19T05:29:47.692Z,12.26
2022-10-19T05:30:49.028Z,12.25
2022-10-19T05:31:47.710Z,12.28
2022-10-19T05:32:47.711Z,12.28
2022-10-19T05:33:47.623Z,12.29
2022-10-19T05:34:47.680Z,12.29
2022-10-19T05:35:47.615Z,12.29
2022-10-19T05:36:47.694Z,12.26
2022-10-19T05:37:47.616Z,12.26
2022-10-19T05:38:47.589Z,12.25
2022-10-19T05:39:47.569Z,12.28
2022-10-19T05:40:51.533Z,12.26
2022-10-19T05:41:47.572Z,12.26
2022-10-19T05:42:47.554Z,12.28
2022-10-19T05:43:47.497Z,12.26
2022-10-19T05:44:47.523Z,12.28
2022-10-19T05:45:47.481Z,12.29
2022-10-19T05:46:47.458Z,12.29
2022-10-19T05:47:47.472Z,12.30
2022-10-19T05:48:47.451Z,12.29
2022-10-19T05:49:47.422Z,12.29
2022-10-19T05:50:47.436Z,12.30
2022-10-19T05:51:47.387Z,12.30
2022-10-19T05:52:47.368Z,12.30
2022-10-19T05:53:47.403Z,12.33
2022-10-19T05:54:47.355Z,12.32
2022-10-19T05:55:47.353Z,12.33
2022-10-19T05:56:47.332Z,12.33
2022-10-19T05:57:47.297Z,12.32
2022-10-19T05:58:47.378Z,12.33
2022-10-19T05:59:47.305Z,12.36
2022-10-19T06:00:47.316Z,12.35
2022-10-19T06:01:47.390Z,12.38
2022-10-19T06:02:47.280Z,12.35
2022-10-19T06:03:47.260Z,12.38
2022-10-19T06:04:47.328Z,12.36
2022-10-19T06:05:47.242Z,12.38
2022-10-19T06:06:47.251Z,12.36
2022-10-19T06:07:47.165Z,12.40
2022-10-19T06:08:47.161Z,12.40
2022-10-19T06:09:47.145Z,12.40
2022-10-19T06:10:47.197Z,12.44
2022-10-19T06:11:47.115Z,12.43
2022-10-19T06:12:47.129Z,12.43
2022-10-19T06:13:47.081Z,12.44
2022-10-19T06:15:47.071Z,12.46
2022-10-19T06:16:47.102Z,12.46
2022-10-19T06:17:47.088Z,12.46
2022-10-19T06:18:47.088Z,12.47
2022-10-19T06:19:47.053Z,12.47
2022-10-19T06:20:47.041Z,12.48
2022-10-19T06:21:46.969Z,12.50
2022-10-19T06:22:47.078Z,12.50
2022-10-19T06:23:46.977Z,12.51
2022-10-19T06:24:46.976Z,12.53
2022-10-19T06:25:46.977Z,12.53
2022-10-19T06:26:46.932Z,12.54
2022-10-19T06:27:46.928Z,12.53
2022-10-19T06:28:47.015Z,12.55
2022-10-19T06:29:46.901Z,12.55
2022-10-19T06:30:46.952Z,12.59
2022-10-19T06:31:46.875Z,12.59
2022-10-19T06:32:46.924Z,12.59
2022-10-19T06:33:49.226Z,12.61
2022-10-19T06:34:46.897Z,12.62
2022-10-19T06:35:46.795Z,12.63
2022-10-19T06:36:46.787Z,12.63
2022-10-19T06:37:46.783Z,12.63
2022-10-19T06:38:46.797Z,12.65
2022-10-19T06:39:46.793Z,12.66
2022-10-19T06:40:46.828Z,12.66
2022-10-19T06:41:46.731Z,12.66
2022-10-19T06:42:46.719Z,12.66
2022-10-19T06:43:46.692Z,12.69
2022-10-19T06:44:46.709Z,12.66
2022-10-19T06:45:46.723Z,12.69
2022-10-19T06:46:46.716Z,12.68
2022-10-19T06:48:46.639Z,12.72
2022-10-19T06:49:46.616Z,12.71
2022-10-19T06:50:46.679Z,12.69
2022-10-19T06:51:46.579Z,12.71
2022-10-19T06:52:46.617Z,12.72
2022-10-19T06:53:46.607Z,12.72
2022-10-19T06:54:46.561Z,12.72
2022-10-19T06:55:46.535Z,12.71
2022-10-19T06:56:46.627Z,12.73
2022-10-19T06:57:46.492Z,12.76
2022-10-19T06:58:46.542Z,12.76
2022-10-19T06:59:49.036Z,12.77
2022-10-19T07:00:46.524Z,12.80
2022-10-19T07:01:46.472Z,12.79
2022-10-19T07:02:46.499Z,12.77
2022-10-19T07:03:46.418Z,12.76
2022-10-19T07:04:46.464Z,12.73
2022-10-19T07:05:46.439Z,12.72
2022-10-19T07:06:46.408Z,12.76
2022-10-19T07:07:46.557Z,12.72
2022-10-19T07:08:46.357Z,12.73
2022-10-19T07:09:46.340Z,12.76
2022-10-19T07:10:46.443Z,12.73
2022-10-19T07:11:46.422Z,12.72
2022-10-19T07:12:46.352Z,12.69
2022-10-19T07:13:46.344Z,12.72
2022-10-19T07:14:46.308Z,12.71
2022-10-19T07:15:46.254Z,12.69
2022-10-19T07:16:46.290Z,12.68
2022-10-19T07:17:46.232Z,12.69
2022-10-19T07:18:46.239Z,12.69
2022-10-19T07:19:46.253Z,12.69
2022-10-19T07:20:46.242Z,12.66
2022-10-19T07:21:46.198Z,12.66
2022-10-19T07:22:46.242Z,12.68
2022-10-19T07:23:46.168Z,12.72
2022-10-19T07:24:46.163Z,12.72
2022-10-19T07:25:46.174Z,12.76
2022-10-19T07:26:46.167Z,12.77
2022-10-19T07:27:46.122Z,12.79
2022-10-19T07:28:46.231Z,12.79
2022-10-19T07:29:46.134Z,12.76
2022-10-19T07:30:46.109Z,12.80
2022-10-19T07:31:46.109Z,12.83
2022-10-19T07:32:47.186Z,12.81
2022-10-19T07:33:46.053Z,12.84
2022-10-19T07:34:46.091Z,12.86
2022-10-19T07:35:45.985Z,12.87
2022-10-19T07:36:46.037Z,12.91
2022-10-19T07:37:45.971Z,12.95
2022-10-19T07:38:46.006Z,12.98
2022-10-19T07:39:45.945Z,13.04
2022-10-19T07:40:47.459Z,13.05
2022-10-19T07:41:45.917Z,13.08
2022-10-19T07:42:45.972Z,13.04
2022-10-19T07:43:45.924Z,13.08
2022-10-19T07:44:45.874Z,13.11
2022-10-19T07:45:45.879Z,13.14
2022-10-19T07:46:45.989Z,13.20
2022-10-19T07:47:45.840Z,13.16
2022-10-19T07:48:45.853Z,13.14
2022-10-19T07:49:45.798Z,13.14
2022-10-19T07:50:45.821Z,13.09
2022-10-19T07:51:45.850Z,13.05
2022-10-19T07:53:56.513Z,13.01
2022-10-19T07:54:57.410Z,12.99
2022-10-19T07:55:57.432Z,12.93
2022-10-19T07:56:57.392Z,12.90
2022-10-19T07:57:57.396Z,12.91
2022-10-19T07:58:57.448Z,12.90
2022-10-19T07:59:57.379Z,12.91
2022-10-19T08:00:57.334Z,12.90
2022-10-19T08:01:57.406Z,12.88
2022-10-19T08:03:31.167Z,12.93
2022-10-19T08:04:48.730Z,12.96
2022-10-19T08:05:03.109Z,12.95
2022-10-19T08:05:57.361Z,13.01
2022-10-19T08:06:57.264Z,13.01
2022-10-19T08:07:57.290Z,13.01
2022-10-19T08:08:57.326Z,13.01
2022-10-19T08:09:57.315Z,13.06
2022-10-19T08:10:57.243Z,13.08
2022-10-19T08:11:57.232Z,13.09
2022-10-19T08:12:57.190Z,13.09
2022-10-19T08:13:57.194Z,13.08
2022-10-19T08:14:57.151Z,13.05
2022-10-19T08:15:57.142Z,13.05
2022-10-19T08:16:57.166Z,13.05
2022-10-19T08:17:57.135Z,13.06
2022-10-19T08:18:57.124Z,13.05
2022-10-19T08:19:57.118Z,13.04
2022-10-19T08:20:57.068Z,13.11
2022-10-19T08:21:57.089Z,13.14
2022-10-19T08:22:59.008Z,13.09
2022-10-19T08:23:57.056Z,13.05
2022-10-19T08:24:57.030Z,13.05
2022-10-19T08:25:57.019Z,13.05
2022-10-19T08:26:56.996Z,13.04
2022-10-19T08:27:57.017Z,12.98
2022-10-19T08:28:56.996Z,13.01
2022-10-19T08:29:57.022Z,13.02
2022-10-19T08:30:56.952Z,13.05
2022-10-19T08:31:56.958Z,13.04
2022-10-19T08:32:56.918Z,13.02
2022-10-19T08:33:56.938Z,13.04
2022-10-19T08:34:56.934Z,13.06
2022-10-19T08:35:56.886Z,13.13
2022-10-19T08:36:56.861Z,13.13
2022-10-19T08:37:58.670Z,13.11
2022-10-19T08:38:56.848Z,13.09
2022-10-19T08:39:56.878Z,13.08
2022-10-19T08:40:56.802Z,13.11
2022-10-19T08:41:56.811Z,13.09
2022-10-19T08:42:56.791Z,13.11
2022-10-19T08:43:56.770Z,13.14
2022-10-19T08:44:56.803Z,13.19
2022-10-19T08:45:56.753Z,13.19
2022-10-19T08:46:56.735Z,13.17
2022-10-19T08:47:56.722Z,13.16
2022-10-19T08:48:56.688Z,13.13
2022-10-19T08:49:56.693Z,13.19
2022-10-19T08:50:56.718Z,13.17
2022-10-19T08:51:56.698Z,13.19
2022-10-19T08:52:56.645Z,13.23
2022-10-19T08:53:56.653Z,13.21
2022-10-19T08:54:56.619Z,13.20
2022-10-19T08:55:58.651Z,13.19
2022-10-19T08:56:56.606Z,13.20
2022-10-19T08:57:56.586Z,13.23
2022-10-19T08:58:56.571Z,13.24
2022-10-19T08:59:56.569Z,13.19
2022-10-19T09:00:56.564Z,13.21
2022-10-19T09:01:56.603Z,13.19
2022-10-19T09:02:56.525Z,13.19
2022-10-19T09:03:56.827Z,13.20
2022-10-19T09:04:56.485Z,13.26
2022-10-19T09:05:56.480Z,13.29
2022-10-19T09:06:56.566Z,13.35
2022-10-19T09:07:56.470Z,13.36
2022-10-19T09:08:56.471Z,13.30
2022-10-19T09:09:56.429Z,13.30
2022-10-19T09:10:56.427Z,13.32
2022-10-19T09:11:56.413Z,13.39
2022-10-19T09:12:58.474Z,13.45
2022-10-19T09:14:06.142Z,13.42
2022-10-19T09:14:56.351Z,13.38
2022-10-19T09:15:56.378Z,13.30
2022-10-19T09:16:56.329Z,13.36
2022-10-19T09:17:56.356Z,13.38
2022-10-19T09:18:56.351Z,13.29
2022-10-19T09:19:56.295Z,13.38
2022-10-19T09:20:56.279Z,13.39
2022-10-19T09:21:56.294Z,13.42
2022-10-19T09:22:56.319Z,13.42
2022-10-19T09:23:56.276Z,13.42
2022-10-19T09:24:56.293Z,13.45
2022-10-19T09:25:56.209Z,13.45
2022-10-19T09:26:56.214Z,13.47
2022-10-19T09:27:56.207Z,13.54
2022-10-19T09:28:56.228Z,13.57
2022-10-19T09:29:56.176Z,13.51
2022-10-19T09:30:56.139Z,13.49
2022-10-19T09:31:56.138Z,13.54
2022-10-19T09:32:56.156Z,13.60
2022-10-19T09:33:56.130Z,13.61
2022-10-19T09:34:56.115Z,13.68
2022-10-19T09:35:56.091Z,13.68
2022-10-19T09:36:56.073Z,13.67
2022-10-19T09:37:56.066Z,13.65
2022-10-19T09:38:56.040Z,13.64
2022-10-19T09:39:56.302Z,13.68
2022-10-19T09:40:56.005Z,13.72
2022-10-19T09:41:56.013Z,13.72
2022-10-19T09:42:55.990Z,13.78
2022-10-19T09:43:56.010Z,13.82
2022-10-19T09:44:55.944Z,13.90
2022-10-19T09:45:55.984Z,13.83
2022-10-19T09:46:55.927Z,13.80
2022-10-19T09:47:58.998Z,13.79
2022-10-19T09:48:55.912Z,13.83
2022-10-19T09:49:55.900Z,13.86
2022-10-19T09:50:55.943Z,13.83
2022-10-19T09:51:55.881Z,13.83
2022-10-19T09:52:55.932Z,13.79
2022-10-19T09:53:55.865Z,13.80
2022-10-19T09:54:55.843Z,13.79
2022-10-19T09:55:55.969Z,13.83
2022-10-19T09:56:55.842Z,13.83
2022-10-19T09:57:55.794Z,13.83
2022-10-19T09:58:55.800Z,13.85
2022-10-19T09:59:55.795Z,13.86
2022-10-19T10:00:55.791Z,13.88
2022-10-19T10:01:55.831Z,13.88
2022-10-19T10:02:55.829Z,13.90
2022-10-19T10:03:56.053Z,13.93
2022-10-19T10:04:55.686Z,13.98
2022-10-19T10:05:55.715Z,14.01
2022-10-19T10:06:55.701Z,14.03
2022-10-19T10:07:55.669Z,14.08
2022-10-19T10:08:55.700Z,14.05
2022-10-19T10:09:55.643Z,14.05
2022-10-19T10:10:55.662Z,14.01
2022-10-19T10:12:55.572Z,14.13
2022-10-19T10:13:55.607Z,14.15
2022-10-19T10:14:55.589Z,14.12
2022-10-19T10:15:55.550Z,14.11
2022-10-19T10:16:55.593Z,14.12
2022-10-19T10:17:55.576Z,14.12
2022-10-19T10:18:55.503Z,14.13
2022-10-19T10:19:55.507Z,14.22
2022-10-19T10:21:55.482Z,14.34
2022-10-19T10:22:55.535Z,14.41
2022-10-19T10:23:55.456Z,14.45
2022-10-19T10:24:55.464Z,14.40
2022-10-19T10:25:55.457Z,14.40
2022-10-19T10:26:55.481Z,14.51
2022-10-19T10:27:55.434Z,14.63
2022-10-19T10:28:57.884Z,14.71
2022-10-19T10:30:55.392Z,14.90
2022-10-19T10:31:55.418Z,14.95
2022-10-19T10:32:55.380Z,14.93
2022-10-19T10:33:55.584Z,14.86
2022-10-19T10:34:58.369Z,14.86
2022-10-19T10:35:55.338Z,14.83
2022-10-19T10:36:55.291Z,14.86
2022-10-19T10:37:55.286Z,14.89
2022-10-19T10:38:55.362Z,14.92
2022-10-19T10:39:56.794Z,14.99
2022-10-19T10:40:55.221Z,15.01
2022-10-19T10:41:55.200Z,15.04
2022-10-19T10:42:55.306Z,15.05
2022-10-19T10:43:56.683Z,15.07
2022-10-19T10:44:55.222Z,15.11
2022-10-19T10:45:55.139Z,15.25
2022-10-19T10:46:55.148Z,15.30
2022-10-19T10:47:55.148Z,15.29
2022-10-19T10:48:55.174Z,15.26
2022-10-19T10:49:55.124Z,15.30
2022-10-19T10:50:55.133Z,15.36
2022-10-19T10:51:55.053Z,15.27
2022-10-19T10:52:55.059Z,15.17
2022-10-19T10:53:55.036Z,15.12
2022-10-19T10:54:55.054Z,15.14
2022-10-19T10:55:55.021Z,15.12
2022-10-19T10:56:55.104Z,15.14
2022-10-19T10:57:55.023Z,15.20
2022-10-19T10:58:55.014Z,15.29
2022-10-19T10:59:54.949Z,15.29
2022-10-19T11:00:54.996Z,15.35
2022-10-19T11:01:55.020Z,15.40
2022-10-19T11:02:54.966Z,15.44
2022-10-19T11:03:54.915Z,15.41
2022-10-19T11:04:54.935Z,15.47
2022-10-19T11:05:54.899Z,15.50
2022-10-19T11:06:54.879Z,15.60
2022-10-19T11:07:54.850Z,15.63
2022-10-19T11:08:54.983Z,15.65
2022-10-19T11:09:54.836Z,15.59
2022-10-19T11:10:54.825Z,15.59
2022-10-19T11:11:54.835Z,15.59
2022-10-19T11:12:54.791Z,15.59
2022-10-19T11:13:54.756Z,15.56
2022-10-19T11:14:54.855Z,15.54
2022-10-19T11:15:54.764Z,15.58
2022-10-19T11:16:54.743Z,15.59
2022-10-19T11:17:54.756Z,15.62
2022-10-19T11:18:54.711Z,15.73
2022-10-19T11:19:54.688Z,15.80
2022-10-19T11:20:54.732Z,15.95
2022-10-19T11:21:54.689Z,15.99
2022-10-19T11:22:54.684Z,15.95
2022-10-19T11:23:54.635Z,16.05
2022-10-19T11:24:54.702Z,16.16
2022-10-19T11:25:54.638Z,16.33
2022-10-19T11:26:54.709Z,16.36
2022-10-19T11:27:54.595Z,16.25
2022-10-19T11:28:54.600Z,16.25
2022-10-19T11:29:54.557Z,16.17
2022-10-19T11:30:54.554Z,16.21
2022-10-19T11:31:54.533Z,16.37
2022-10-19T11:32:54.568Z,16.47
2022-10-19T11:33:54.495Z,16.49
2022-10-19T11:34:54.521Z,16.44
2022-10-19T11:35:54.488Z,16.46
2022-10-19T11:36:54.471Z,16.40
2022-10-19T11:38:17.536Z,16.43
2022-10-19T11:38:54.530Z,16.43
2022-10-19T11:39:54.419Z,16.34
2022-10-19T11:41:54.405Z,16.43
2022-10-19T11:42:54.394Z,16.42
2022-10-19T11:43:54.388Z,16.55
2022-10-19T11:44:54.416Z,16.73
2022-10-19T11:45:54.378Z,16.88
2022-10-19T11:46:54.419Z,16.97
2022-10-19T11:47:54.318Z,16.94
2022-10-19T11:48:54.913Z,16.92
2022-10-19T11:49:54.299Z,16.83
2022-10-19T11:50:58.609Z,16.80
2022-10-19T11:51:54.296Z,16.77
2022-10-19T11:52:54.278Z,16.77
2022-10-19T11:53:54.240Z,16.83
2022-10-19T11:54:54.278Z,16.84
2022-10-19T11:55:54.222Z,16.82
2022-10-19T11:57:11.734Z,16.82
2022-10-19T11:57:54.184Z,16.74
2022-10-19T11:58:54.188Z,16.70
2022-10-19T11:59:57.574Z,16.67
2022-10-19T12:00:54.160Z,16.72
2022-10-19T12:01:54.225Z,16.72
2022-10-19T12:02:54.240Z,16.61
2022-10-19T12:03:54.109Z,16.57
2022-10-19T12:04:54.129Z,16.47
2022-10-19T12:05:54.146Z,16.47
2022-10-19T12:06:54.076Z,16.36
2022-10-19T12:07:54.085Z,16.14
2022-10-19T12:08:56.172Z,15.99
2022-10-19T12:09:54.079Z,15.90
2022-10-19T12:10:54.065Z,15.78
2022-10-19T12:11:54.011Z,15.70
2022-10-19T12:12:54.078Z,15.68
2022-10-19T12:13:54.004Z,15.65
2022-10-19T12:14:54.074Z,15.66
2022-10-19T12:15:54.010Z,15.63
2022-10-19T12:16:53.973Z,15.56
2022-10-19T12:17:53.942Z,15.60
2022-10-19T12:18:53.956Z,15.66
2022-10-19T12:19:53.912Z,15.69
2022-10-19T12:20:53.955Z,15.80
2022-10-19T12:21:53.896Z,15.88
2022-10-19T12:22:53.867Z,15.99
2022-10-19T12:23:53.866Z,16.08
2022-10-19T12:24:53.848Z,16.10
2022-10-19T12:25:53.805Z,16.10
2022-10-19T12:26:54.023Z,16.14
2022-10-19T12:27:53.852Z,16.24
2022-10-19T12:28:53.809Z,16.25
2022-10-19T12:29:53.821Z,16.25
2022-10-19T12:30:53.786Z,16.37
2022-10-19T12:31:53.782Z,16.46
2022-10-19T12:32:54.424Z,16.55
2022-10-19T12:33:54.413Z,16.59
2022-10-19T12:34:53.710Z,16.62
2022-10-19T12:35:53.716Z,16.69
2022-10-19T12:36:53.729Z,16.80
2022-10-19T12:37:53.676Z,16.90
2022-10-19T12:39:00.224Z,17.09
2022-10-19T12:39:53.642Z,17.22
2022-10-19T12:40:53.654Z,17.30
2022-10-19T12:41:53.606Z,17.43
2022-10-19T12:42:53.628Z,17.52
2022-10-19T12:43:53.652Z,17.53
2022-10-19T12:44:56.291Z,17.56
2022-10-19T12:45:53.567Z,17.53
2022-10-19T12:46:54.640Z,17.49
2022-10-19T12:47:53.528Z,17.57
2022-10-19T12:48:53.546Z,17.52
2022-10-19T12:49:53.489Z,17.46
2022-10-19T12:50:53.534Z,17.43
2022-10-19T12:51:53.492Z,17.45
2022-10-19T12:52:53.468Z,17.45
2022-10-19T12:53:53.445Z,17.38
2022-10-19T12:54:53.446Z,17.32
2022-10-19T12:55:53.590Z,17.35
2022-10-19T12:56:53.460Z,17.28
2022-10-19T12:57:53.394Z,17.20
2022-10-19T12:58:53.385Z,17.22
2022-10-19T12:59:53.368Z,17.30
2022-10-19T13:00:53.415Z,17.37
2022-10-19T13:01:53.394Z,17.56